Hesperia, CA (92345)

3:38 PM PDT on August 24, 2016 (GMT -0700)
Hesperia South | | Change Station

Elev 3580 ft 34.37 °N, 117.34 °W | Updated 15 minutes ago

Scattered Clouds
Scattered Clouds
87.2 °F
Feels Like 84 °F
N
12.0
Wind Variable Wind from South
Gusts 24.0 mph

Today
High -- | Low -- °F
--% Chance of Precip.
Yesterday
High -- | Low -- °F
Precip. -- in
Pressure 30.00 in
Visibility 10.0 miles
Clouds Scattered Clouds 8500 ft
Scattered Clouds 11000 ft
Heat Index 84 °F
Dew Point 46 °F
Humidity 24%
Rainfall 0.00 in
Snow Depth Not available.
6:17 AM 7:25 PM
Waning Gibbous, 52% visible
METAR KVCV 242215Z AUTO 18009G14KT 10SM SCT085 SCT110 37/01 A3000 RMK AO2
Pressure 30.00 in
Visibility 10.0 miles
Clouds Scattered Clouds 8500 ft
Scattered Clouds 11000 ft
Heat Index 84 °F
Dew Point 46 °F
Humidity 24%
Rainfall 0.00 in
Snow Depth Not available.
6:17 AM 7:25 PM
Waning Gibbous, 52% visible
METAR KVCV 242215Z AUTO 18009G14KT 10SM SCT085 SCT110 37/01 A3000 RMK AO2

10-Day Weather Forecast

Almanac

Astronomy

Aug. 24, 2016 Rise Set
Actual Time
Civil Twilight
Nautical Twilight
Astronomical Twilight
Moon
Length of Visible Light
Length of Day
Tomorrow will be .
, % of the Moon is Illuminated

Today's Extremes

State Highs State Lows

Community

WunderPhotos

Upload Photos

1,934,728 photos uploaded!

WunderBlog® & News

Nearby

Air Quality

  Air Quality AQ Index Pollutant
Not available.

Snow Depth

Station Depth Elevation

Earthquake Activity

City Distance Mag. Time & Date
Minimum magnitude displayed is 2.5.

Coastal Water Temperatures

Place Temperature

Stations

Nearby Weather Stations

Station Location Temp. Windchill Dew Point Humidity Wind Precip. Elev Updated Type
                   

Watches & Warnings

There are currently no watches in effect.